KNFE

Fentress Nalf Airport

Fentress, Virginia, USA
METAR KNFE 171756Z AUTO VRB04KT 10SM CLR 23/11 A3006 RMK AO2 SLP181 60000 T02280111 10228 20189 58010
Observed Flight Rules
Oct-17 @ 17:56 UTC (24 minutes ago) Visual Flight Rules
Wind Visibility Clouds
Variable at 4 knots 10 miles
  • Clear skies
Temperatures Readings
Current 23°C / 73°F
Dewpoint 11°C / 52°F
Humidity 47%
Altimeter 30.06" Hg
Pressure 1018.1 hPa
Elevation 5
METAR KNFE 171756Z AUTO VRB04KT 10SM CLR 23/11 A3006 RMK AO2 SLP181 60000 T02280111 10228 20189 58010
Observed Flight Rules
Oct-17 @ 17:56 UTC
(24 minutes ago)
VFR
Wind Visibility
Variable at 4 knots 10 miles
Clouds
  • Clear skies
Temperature Dewpoint
23°C / 73°F 11°C / 52°F
Humidity Altimeter Pressure
47% 30.06" Hg 1018.1 hPa